Map

Track Data

SID SEASON NUMBER BASIN SUBBASIN NAME ISO_TIME NATURE LAT LON WMO_WIND WMO_PRES WMO_AGENCY TRACK_TYPE DIST2LAND LANDFALL IFLAG USA_AGENCY USA_ATCF_ID USA_LAT USA_LON USA_RECORD USA_STATUS USA_WIND USA_PRES USA_SSHS USA_R34_NE USA_R34_SE USA_R34_SW USA_R34_NW USA_R50_NE USA_R50_SE USA_R50_SW USA_R50_NW USA_R64_NE USA_R64_SE USA_R64_SW USA_R64_NW USA_POCI USA_ROCI USA_RMW USA_EYE TOKYO_LAT TOKYO_LON TOKYO_GRADE TOKYO_WIND TOKYO_PRES TOKYO_R50_DIR TOKYO_R50_LONG TOKYO_R50_SHORT TOKYO_R30_DIR TOKYO_R30_LONG TOKYO_R30_SHORT TOKYO_LAND CMA_LAT CMA_LON CMA_CAT CMA_WIND CMA_PRES HKO_LAT HKO_LON HKO_CAT HKO_WIND HKO_PRES NEWDELHI_LAT NEWDELHI_LON NEWDELHI_GRADE NEWDELHI_WIND NEWDELHI_PRES NEWDELHI_CI NEWDELHI_DP NEWDELHI_POCI REUNION_LAT REUNION_LON REUNION_TYPE REUNION_WIND REUNION_PRES REUNION_TNUM REUNION_CI REUNION_RMW REUNION_R34_NE REUNION_R34_SE REUNION_R34_SW REUNION_R34_NW REUNION_R50_NE REUNION_R50_SE REUNION_R50_SW REUNION_R50_NW REUNION_R64_NE REUNION_R64_SE REUNION_R64_SW REUNION_R64_NW BOM_LAT BOM_LON BOM_TYPE BOM_WIND BOM_PRES BOM_TNUM BOM_CI BOM_RMW BOM_R34_NE BOM_R34_SE BOM_R34_SW BOM_R34_NW BOM_R50_NE BOM_R50_SE BOM_R50_SW BOM_R50_NW BOM_R64_NE BOM_R64_SE BOM_R64_SW BOM_R64_NW BOM_ROCI BOM_POCI BOM_EYE BOM_POS_METHOD BOM_PRES_METHOD NADI_LAT NADI_LON NADI_CAT NADI_WIND NADI_PRES WELLINGTON_LAT WELLINGTON_LON WELLINGTON_WIND WELLINGTON_PRES DS824_LAT DS824_LON DS824_STAGE DS824_WIND DS824_PRES TD9636_LAT TD9636_LON TD9636_STAGE TD9636_WIND TD9636_PRES TD9635_LAT TD9635_LON TD9635_WIND TD9635_PRES TD9635_ROCI NEUMANN_LAT NEUMANN_LON NEUMANN_CLASS NEUMANN_WIND NEUMANN_PRES MLC_LAT MLC_LON MLC_CLASS MLC_WIND MLC_PRES USA_GUST BOM_GUST BOM_GUST_PER REUNION_GUST REUNION_GUST_PER USA_SEAHGT USA_SEARAD_NE USA_SEARAD_SE USA_SEARAD_SW USA_SEARAD_NW STORM_SPEED STORM_DIR
1985265S10080 1986 92 SI MM NOT_NAMED 1985-09-22 06:00:00 TS -10.1000 79.7000 main 1795 1795 O___________O_ jtwc_sh SH011986 -10.1000 79.7000 25 -1 -10.1000 79.7000 TC 25 12 254
1985265S10080 1986 92 SI MM NOT_NAMED 1985-09-22 09:00:00 TS -10.2552 79.1326 main 1822 1822 P___________P_ SH011986 -10.2552 79.1326 27 -1 -10.2552 79.1326 TC 27 11 254
1985265S10080 1986 92 SI MM NOT_NAMED 1985-09-22 12:00:00 TS -10.4000 78.6000 main 1839 1839 O___________O_ jtwc_sh SH011986 -10.4000 78.6000 30 -1 -10.4000 78.6000 TC 30 10 255
1985265S10080 1986 92 SI MM NOT_NAMED 1985-09-22 15:00:00 TS -10.5224 78.1275 main 1858 1858 P___________P_ SH011986 -10.5224 78.1275 32 -1 -10.5224 78.1275 TC 32 9 257
1985265S10080 1986 92 SI MM NOT_NAMED 1985-09-22 18:00:00 TS -10.6000 77.7000 main 1876 1876 O___________O_ jtwc_sh SH011986 -10.6000 77.7000 35 0 -10.6000 77.7000 TC 35 8 264
1985265S10080 1986 92 SI MM NOT_NAMED 1985-09-22 21:00:00 TS -10.6149 77.2849 main 1884 1884 P___________P_ SH011986 -10.6149 77.2849 35 0 -10.6149 77.2849 TC 35 8 270
1985265S10080 1986 92 SI MM NOT_NAMED 1985-09-23 00:00:00 TS -10.6000 76.9000 main 1893 1893 O___________O_ jtwc_sh SH011986 -10.6000 76.9000 35 0 -10.6000 76.9000 TC 35 7 271
1985265S10080 1986 92 SI MM NOT_NAMED 1985-09-23 03:00:00 TS -10.6000 76.5275 main 1903 1903 P___________P_ SH011986 -10.6000 76.5275 35 0 -10.6000 76.5275 TC 35 7 270
1985265S10080 1986 92 SI MM NOT_NAMED 1985-09-23 06:00:00 TS -10.6000 76.2000 main 1912 1912 O___________O_ jtwc_sh SH011986 -10.6000 76.2000 35 0 -10.6000 76.2000 TC 35 6 269
1985265S10080 1986 92 SI MM NOT_NAMED 1985-09-23 09:00:00 TS -10.6074 75.9350 main 1920 1920 P___________P_ SH011986 -10.6074 75.9350 35 0 -10.6074 75.9350 TC 35 5 270
1985265S10080 1986 92 SI MM NOT_NAMED 1985-09-23 12:00:00 TS -10.6000 75.7000 main 1926 1926 O___________O_ jtwc_sh SH011986 -10.6000 75.7000 35 0 -10.6000 75.7000 TC 35 5 276
1985265S10080 1986 92 SI MM NOT_NAMED 1985-09-23 15:00:00 TS -10.5575 75.4425 main 1936 1925 P___________P_ SH011986 -10.5575 75.4425 35 0 -10.5575 75.4425 TC 35 5 282
1985265S10080 1986 92 SI MM NOT_NAMED 1985-09-23 18:00:00 TS -10.5000 75.2000 main 1932 1932 O___________O_ jtwc_sh SH011986 -10.5000 75.2000 35 0 -10.5000 75.2000 TC 35 5 284
1985265S10080 1986 92 SI MM NOT_NAMED 1985-09-23 21:00:00 TS -10.4500 74.9925 main 1929 1929 P___________P_ SH011986 -10.4500 74.9925 35 0 -10.4500 74.9925 TC 35 4 284
1985265S10080 1986 92 SI MM NOT_NAMED 1985-09-24 00:00:00 TS -10.4000 74.8000 main 1936 1936 O___________O_ jtwc_sh SH011986 -10.4000 74.8000 35 0 -10.4000 74.8000 TC 35 4 285
1985265S10080 1986 92 SI MM NOT_NAMED 1985-09-24 03:00:00 TS -10.3500 74.6000 main 1932 1932 P___________P_ SH011986 -10.3500 74.6000 35 0 -10.3500 74.6000 TC 35 4 284
1985265S10080 1986 92 SI MM NOT_NAMED 1985-09-24 06:00:00 TS -10.3000 74.4000 main 1939 1939 O___________O_ jtwc_sh SH011986 -10.3000 74.4000 35 0 -10.3000 74.4000 TC 35 4 283
1985265S10080 1986 92 SI MM NOT_NAMED 1985-09-24 09:00:00 TS -10.2575 74.2000 main 1947 1937 P___________P_ SH011986 -10.2575 74.2000 35 0 -10.2575 74.2000 TC 35 4 284
1985265S10080 1986 92 SI MM NOT_NAMED 1985-09-24 12:00:00 TS -10.2000 74.0000 main 1944 1938 O___________O_ jtwc_sh SH011986 -10.2000 74.0000 35 0 -10.2000 74.0000 TC 35 4 292
1985265S10080 1986 92 SI MM NOT_NAMED 1985-09-24 15:00:00 TS -10.1000 73.8075 main 1942 1936 P___________P_ SH011986 -10.1000 73.8075 37 0 -10.1000 73.8075 TC 37 4 297
1985265S10080 1986 92 SI MM NOT_NAMED 1985-09-24 18:00:00 TS -10.0000 73.6000 main 1940 1938 O___________O_ jtwc_sh SH011986 -10.0000 73.6000 40 0 -10.0000 73.6000 TC 40 5 290
1985265S10080 1986 92 SI MM NOT_NAMED 1985-09-24 21:00:00 TS -9.94246 73.3725 main 1938 1938 P___________P_ SH011986 -9.94246 73.3725 40 0 -9.94246 73.3725 TC 40 5 281
1985265S10080 1986 92 SI MM NOT_NAMED 1985-09-25 00:00:00 TS -9.90000 73.1000 main 1952 1952 O___________O_ jtwc_sh SH011986 -9.90000 73.1000 40 0 -9.90000 73.1000 TC 40 6 279
1985265S10080 1986 92 SI MM NOT_NAMED 1985-09-25 03:00:00 TS -9.85001 72.7650 main 1966 1953 P___________P_ SH011986 -9.85001 72.7650 40 0 -9.85001 72.7650 TC 40 7 278
1985265S10080 1986 92 SI MM NOT_NAMED 1985-09-25 06:00:00 TS -9.80000 72.4000 main 1953 1927 O___________O_ jtwc_sh SH011986 -9.80000 72.4000 40 0 -9.80000 72.4000 TC 40 7 278
1985265S10080 1986 92 SI MM NOT_NAMED 1985-09-25 09:00:00 TS -9.75741 72.0650 main 1927 1900 P___________P_ SH011986 -9.75741 72.0650 40 0 -9.75741 72.0650 TC 40 7 278
1985265S10080 1986 92 SI MM NOT_NAMED 1985-09-25 12:00:00 TS -9.70000 71.7000 main 1900 1874 O___________O_ jtwc_sh SH011986 -9.70000 71.7000 40 0 -9.70000 71.7000 TC 40 8 281
1985265S10080 1986 92 SI MM NOT_NAMED 1985-09-25 15:00:00 TS -9.60000 71.2650 main 1874 1839 P___________P_ SH011986 -9.60000 71.2650 40 0 -9.60000 71.2650 TC 40 9 283
1985265S10080 1986 92 SI MM NOT_NAMED 1985-09-25 18:00:00 TS -9.50000 70.8000 main 1839 1807 O___________O_ jtwc_sh SH011986 -9.50000 70.8000 40 0 -9.50000 70.8000 TC 40 9 280
1985265S10080 1986 92 SI MM NOT_NAMED 1985-09-25 21:00:00 TS -9.44988 70.3651 main 1814 1774 P___________P_ SH011986 -9.44988 70.3651 40 0 -9.44988 70.3651 TC 40 9 276
1985265S10080 1986 92 SI MM NOT_NAMED 1985-09-26 00:00:00 TS -9.40000 69.9000 main 1774 1743 O___________O_ jtwc_sh SH011986 -9.40000 69.9000 40 0 -9.40000 69.9000 TC 40 10 278
1985265S10080 1986 92 SI MM NOT_NAMED 1985-09-26 03:00:00 TS -9.30748 69.3650 main 1743 1706 P___________P_ SH011986 -9.30748 69.3650 40 0 -9.30748 69.3650 TC 40 11 280
1985265S10080 1986 92 SI MM NOT_NAMED 1985-09-26 06:00:00 TS -9.20000 68.8000 main 1706 1677 O___________O_ jtwc_sh SH011986 -9.20000 68.8000 40 0 -9.20000 68.8000 TC 40 11 281
1985265S10080 1986 92 SI MM NOT_NAMED 1985-09-26 09:00:00 TS -9.09988 68.2575 main 1677 1642 P___________P_ SH011986 -9.09988 68.2575 40 0 -9.09988 68.2575 TC 40 11 280
1985265S10080 1986 92 SI MM NOT_NAMED 1985-09-26 12:00:00 TS -9.00000 67.7000 main 1642 1610 O___________O_ jtwc_sh SH011986 -9.00000 67.7000 40 0 -9.00000 67.7000 TC 40 12 280
1985265S10080 1986 92 SI MM NOT_NAMED 1985-09-26 15:00:00 TS -8.89244 67.1075 main 1610 1579 P___________P_ SH011986 -8.89244 67.1075 40 0 -8.89244 67.1075 TC 40 12 280
1985265S10080 1986 92 SI MM NOT_NAMED 1985-09-26 18:00:00 TS -8.80000 66.5000 main 1579 1548 O___________O_ jtwc_sh SH011986 -8.80000 66.5000 40 0 -8.80000 66.5000 TC 40 12 277
1985265S10080 1986 92 SI MM NOT_NAMED 1985-09-26 21:00:00 TS -8.74241 65.9001 main 1551 1515 P___________P_ SH011986 -8.74241 65.9001 40 0 -8.74241 65.9001 TC 40 12 275
1985265S10080 1986 92 SI MM NOT_NAMED 1985-09-27 00:00:00 TS -8.70000 65.3000 main 1515 1487 O___________O_ jtwc_sh SH011986 -8.70000 65.3000 40 0 -8.70000 65.3000 TC 40 12 275
1985265S10080 1986 92 SI MM NOT_NAMED 1985-09-27 03:00:00 TS -8.64237 64.7075 main 1491 1459 P___________P_ SH011986 -8.64237 64.7075 40 0 -8.64237 64.7075 TC 40 12 275
1985265S10080 1986 92 SI MM NOT_NAMED 1985-09-27 06:00:00 TS -8.60000 64.1000 main 1459 1430 O___________O_ jtwc_sh SH011986 -8.60000 64.1000 40 0 -8.60000 64.1000 TC 40 12 272
1985265S10080 1986 92 SI MM NOT_NAMED 1985-09-27 09:00:00 TS -8.59247 63.4500 main 1430 1399 P___________P_ SH011986 -8.59247 63.4500 40 0 -8.59247 63.4500 TC 40 13 270
1985265S10080 1986 92 SI MM NOT_NAMED 1985-09-27 12:00:00 TS -8.60000 62.8000 main 1399 1375 O___________O_ jtwc_sh SH011986 -8.60000 62.8000 40 0 -8.60000 62.8000 TC 40 13 269
1985265S10080 1986 92 SI MM NOT_NAMED 1985-09-27 15:00:00 TS -8.60740 62.1850 main 1375 1353 P___________P_ SH011986 -8.60740 62.1850 40 0 -8.60740 62.1850 TC 40 12 270
1985265S10080 1986 92 SI MM NOT_NAMED 1985-09-27 18:00:00 TS -8.60000 61.6000 main 1353 1319 O___________O_ jtwc_sh SH011986 -8.60000 61.6000 40 0 -8.60000 61.6000 TC 40 11 273
1985265S10080 1986 92 SI MM NOT_NAMED 1985-09-27 21:00:00 TS -8.55742 61.0350 main 1309 1263 P___________P_ SH011986 -8.55742 61.0350 40 0 -8.55742 61.0350 TC 40 11 275
1985265S10080 1986 92 SI MM NOT_NAMED 1985-09-28 00:00:00 TS -8.50000 60.5000 main 1263 1213 O___________O_ jtwc_sh SH011986 -8.50000 60.5000 40 0 -8.50000 60.5000 TC 40 10 276
1985265S10080 1986 92 SI MM NOT_NAMED 1985-09-28 03:00:00 TS -8.45741 59.9925 main 1213 1169 P___________P_ SH011986 -8.45741 59.9925 37 0 -8.45741 59.9925 TC 37 10 276
1985265S10080 1986 92 SI MM NOT_NAMED 1985-09-28 06:00:00 TS -8.40000 59.5000 main 1169 1125 O___________O_ jtwc_sh SH011986 -8.40000 59.5000 35 0 -8.40000 59.5000 TC 35 10 279
1985265S10080 1986 92 SI MM NOT_NAMED 1985-09-28 09:00:00 TS -8.30744 59.0000 main 1125 1083 P___________P_ SH011986 -8.30744 59.0000 35 0 -8.30744 59.0000 TC 35 10 281
1985265S10080 1986 92 SI MM NOT_NAMED 1985-09-28 12:00:00 TS -8.20000 58.5000 main 1083 1042 O___________O_ jtwc_sh SH011986 -8.20000 58.5000 35 0 -8.20000 58.5000 TC 35 10 282
1985265S10080 1986 92 SI MM NOT_NAMED 1985-09-28 15:00:00 TS -8.09999 57.9850 main 1042 1002 P___________P_ SH011986 -8.09999 57.9850 32 -1 -8.09999 57.9850 TC 32 10 281
1985265S10080 1986 92 SI MM NOT_NAMED 1985-09-28 18:00:00 TS -8.00000 57.5000 main 1002 971 O___________O_ jtwc_sh SH011986 -8.00000 57.5000 30 -1 -8.00000 57.5000 TC 30 9 282
1985265S10080 1986 92 SI MM NOT_NAMED 1985-09-28 21:00:00 TS -7.89997 57.0625 main 971 939 P___________P_ SH011986 -7.89997 57.0625 30 -1 -7.89997 57.0625 TC 30 8 284
1985265S10080 1986 92 SI MM NOT_NAMED 1985-09-29 00:00:00 TS -7.80000 56.7000 main 939 917 O___________O_ jtwc_sh SH011986 -7.80000 56.7000 30 -1 -7.80000 56.7000 TC 30 7 288
1985265S10080 1986 92 SI MM NOT_NAMED 1985-09-29 03:00:00 TS -7.69994 56.4275 main 917 906 P___________P_ SH011986 -7.69994 56.4275 30 -1 -7.69994 56.4275 TC 30 5 292
1985265S10080 1986 92 SI MM NOT_NAMED 1985-09-29 06:00:00 TS -7.60000 56.2000 main 906 894 O___________O_ jtwc_sh SH011986 -7.60000 56.2000 30 -1 -7.60000 56.2000 TC 30 5 293
1985265S10080 1986 92 SI MM NOT_NAMED 1985-09-29 09:00:00 TS -7.49250 55.9425 main 885 875 P___________P_ SH011986 -7.49250 55.9425 30 -1 -7.49250 55.9425 TC 30 5 292
1985265S10080 1986 92 SI MM NOT_NAMED 1985-09-29 12:00:00 TS -7.40000 55.7000 main 875 858 O___________O_ jtwc_sh SH011986 -7.40000 55.7000 30 -1 -7.40000 55.7000 TC 30 5 289
1985265S10080 1986 92 SI MM NOT_NAMED 1985-09-29 15:00:00 TS -7.34001 55.4900 main 865 848 P___________P_ SH011986 -7.34001 55.4900 27 -1 -7.34001 55.4900 TC 27 4 284
1985265S10080 1986 92 SI MM NOT_NAMED 1985-09-29 18:00:00 TS -7.30000 55.3000 main 848 O___________O_ jtwc_sh SH011986 -7.30000 55.3000 25 -1 -7.30000 55.3000 TC 25 4 282

About IBTrACS Database

This database is a web-friendly format of International Best Track Archive for Climate Stewardship (IBTrACS), a global best track data archive curated by NOAA dating back to 1842.

Updated: 2021-12-03